Tarrs, Pennsylvania
Current Conditions -  °F | °C
As of 4:50 PM on Friday 19 Dec 2014 (Local Time) from KLBE Reporting Station
Overcast Overcast  
Wind Chill: 23°   Ceiling: 2600
Heat Index: 32°   Visibility: 20mi
Dew Point: 25°   Wind: 12mph
Humidity: 75%   Direction: 290°WNW
Pressure: 30.23"   Gusts: NA
Location:  40.17°N, 79.6°W
Report Text: KLBE 192150Z 29010KT 20SM OVC026 00/M04 A3023
Loading
Personal Weather Stations






























Interactive Weather Map New forecast layout! Learn more

10-Day Weather Forecast

Advertisements
Track Severe Weather on mobile